sensor_id;sensor_type;location;lat;lon;timestamp;temperature;humidity
56308;DHT22;42217;50.422;7.210;2022-12-18T00:02:01;-9.70;99.90
56308;DHT22;42217;50.422;7.210;2022-12-18T00:04:27;-9.80;99.90
56308;DHT22;42217;50.422;7.210;2022-12-18T00:06:53;-10.00;99.90
56308;DHT22;42217;50.422;7.210;2022-12-18T00:09:19;-10.20;99.90
56308;DHT22;42217;50.422;7.210;2022-12-18T00:11:45;-10.30;99.90
56308;DHT22;42217;50.422;7.210;2022-12-18T00:14:12;-10.20;99.90
56308;DHT22;42217;50.422;7.210;2022-12-18T00:16:39;-10.00;99.90
56308;DHT22;42217;50.422;7.210;2022-12-18T00:19:05;-9.80;99.90
56308;DHT22;42217;50.422;7.210;2022-12-18T00:21:33;-9.60;99.90
56308;DHT22;42217;50.422;7.210;2022-12-18T00:23:59;-9.50;99.90
56308;DHT22;42217;50.422;7.210;2022-12-18T00:26:28;-9.50;99.90
56308;DHT22;42217;50.422;7.210;2022-12-18T00:28:55;-9.50;99.90
56308;DHT22;42217;50.422;7.210;2022-12-18T00:31:24;-9.70;99.90
56308;DHT22;42217;50.422;7.210;2022-12-18T00:33:50;-9.90;99.90
56308;DHT22;42217;50.422;7.210;2022-12-18T00:36:19;-10.10;99.90
56308;DHT22;42217;50.422;7.210;2022-12-18T00:38:46;-10.10;99.90
56308;DHT22;42217;50.422;7.210;2022-12-18T00:41:14;-10.10;99.90
56308;DHT22;42217;50.422;7.210;2022-12-18T00:44:00;-9.90;99.90
56308;DHT22;42217;50.422;7.210;2022-12-18T00:46:25;-9.80;99.90
56308;DHT22;42217;50.422;7.210;2022-12-18T00:48:51;-9.60;99.90
56308;DHT22;42217;50.422;7.210;2022-12-18T00:51:17;-9.50;99.90
56308;DHT22;42217;50.422;7.210;2022-12-18T00:53:42;-9.50;99.90
56308;DHT22;42217;50.422;7.210;2022-12-18T00:56:08;-9.70;99.90
56308;DHT22;42217;50.422;7.210;2022-12-18T00:58:34;-9.90;99.90
56308;DHT22;42217;50.422;7.210;2022-12-18T01:00:59;-10.10;99.90
56308;DHT22;42217;50.422;7.210;2022-12-18T01:03:25;-10.20;99.90
56308;DHT22;42217;50.422;7.210;2022-12-18T01:05:50;-10.50;99.90
56308;DHT22;42217;50.422;7.210;2022-12-18T01:08:16;-10.80;99.90
56308;DHT22;42217;50.422;7.210;2022-12-18T01:10:42;-11.00;99.90
56308;DHT22;42217;50.422;7.210;2022-12-18T01:13:07;-11.10;99.90
56308;DHT22;42217;50.422;7.210;2022-12-18T01:15:33;-11.10;99.90
56308;DHT22;42217;50.422;7.210;2022-12-18T01:17:59;-11.10;99.90
56308;DHT22;42217;50.422;7.210;2022-12-18T01:20:24;-10.90;99.90
56308;DHT22;42217;50.422;7.210;2022-12-18T01:22:50;-10.70;99.90
56308;DHT22;42217;50.422;7.210;2022-12-18T01:25:16;-10.60;99.90
56308;DHT22;42217;50.422;7.210;2022-12-18T01:27:41;-10.50;99.90
56308;DHT22;42217;50.422;7.210;2022-12-18T01:30:07;-10.40;99.90
56308;DHT22;42217;50.422;7.210;2022-12-18T01:32:33;-10.20;99.90
56308;DHT22;42217;50.422;7.210;2022-12-18T01:34:59;-10.00;99.90
56308;DHT22;42217;50.422;7.210;2022-12-18T01:37:25;-9.80;99.90
56308;DHT22;42217;50.422;7.210;2022-12-18T01:39:51;-9.80;99.90
56308;DHT22;42217;50.422;7.210;2022-12-18T01:42:19;-9.80;99.90
56308;DHT22;42217;50.422;7.210;2022-12-18T01:47:39;-10.10;99.90
56308;DHT22;42217;50.422;7.210;2022-12-18T01:52:47;-10.90;99.90
56308;DHT22;42217;50.422;7.210;2022-12-18T01:55:17;-10.80;99.90
56308;DHT22;42217;50.422;7.210;2022-12-18T01:57:43;-10.30;99.90
56308;DHT22;42217;50.422;7.210;2022-12-18T02:00:13;-10.40;99.90
56308;DHT22;42217;50.422;7.210;2022-12-18T02:02:40;-10.60;99.90
56308;DHT22;42217;50.422;7.210;2022-12-18T02:05:06;-10.50;99.90
56308;DHT22;42217;50.422;7.210;2022-12-18T02:10:29;-10.50;99.90
56308;DHT22;42217;50.422;7.210;2022-12-18T02:18:27;-10.20;99.90
56308;DHT22;42217;50.422;7.210;2022-12-18T02:26:34;-10.10;99.90
56308;DHT22;42217;50.422;7.210;2022-12-18T02:29:38;-10.10;99.90
56308;DHT22;42217;50.422;7.210;2022-12-18T02:32:09;-10.10;99.90
56308;DHT22;42217;50.422;7.210;2022-12-18T02:34:38;-10.20;99.90
56308;DHT22;42217;50.422;7.210;2022-12-18T02:37:07;-10.20;99.90
56308;DHT22;42217;50.422;7.210;2022-12-18T02:39:35;-10.30;99.90
56308;DHT22;42217;50.422;7.210;2022-12-18T02:42:03;-10.30;99.90
56308;DHT22;42217;50.422;7.210;2022-12-18T02:44:43;-10.30;99.90
56308;DHT22;42217;50.422;7.210;2022-12-18T02:47:11;-10.30;99.90
56308;DHT22;42217;50.422;7.210;2022-12-18T02:52:41;-10.20;99.90
56308;DHT22;42217;50.422;7.210;2022-12-18T02:58:23;-10.30;99.90
56308;DHT22;42217;50.422;7.210;2022-12-18T03:01:03;-10.40;99.90
56308;DHT22;42217;50.422;7.210;2022-12-18T03:03:40;-10.30;99.90
56308;DHT22;42217;50.422;7.210;2022-12-18T03:06:47;-10.10;99.90
56308;DHT22;42217;50.422;7.210;2022-12-18T03:09:25;-9.90;99.90
56308;DHT22;42217;50.422;7.210;2022-12-18T03:11:56;-9.80;99.90
56308;DHT22;42217;50.422;7.210;2022-12-18T03:14:43;-9.60;99.90
56308;DHT22;42217;50.422;7.210;2022-12-18T03:17:13;-9.80;99.90
56308;DHT22;42217;50.422;7.210;2022-12-18T03:19:42;-9.60;99.90
56308;DHT22;42217;50.422;7.210;2022-12-18T03:22:10;-9.70;99.90
56308;DHT22;42217;50.422;7.210;2022-12-18T03:24:37;-9.60;99.90
56308;DHT22;42217;50.422;7.210;2022-12-18T03:27:07;-9.30;99.90
56308;DHT22;42217;50.422;7.210;2022-12-18T03:29:45;-9.10;99.90
56308;DHT22;42217;50.422;7.210;2022-12-18T03:32:24;-9.00;99.90
56308;DHT22;42217;50.422;7.210;2022-12-18T03:34:53;-8.90;99.90
56308;DHT22;42217;50.422;7.210;2022-12-18T03:37:22;-9.00;99.90
56308;DHT22;42217;50.422;7.210;2022-12-18T03:39:48;-9.10;99.90
56308;DHT22;42217;50.422;7.210;2022-12-18T03:45:26;-9.10;99.90
56308;DHT22;42217;50.422;7.210;2022-12-18T03:48:05;-9.00;99.90
56308;DHT22;42217;50.422;7.210;2022-12-18T03:55:39;-8.90;99.90
56308;DHT22;42217;50.422;7.210;2022-12-18T03:58:06;-8.90;99.90
56308;DHT22;42217;50.422;7.210;2022-12-18T04:00:33;-9.00;99.90
56308;DHT22;42217;50.422;7.210;2022-12-18T04:02:59;-8.80;99.90
56308;DHT22;42217;50.422;7.210;2022-12-18T04:05:26;-8.40;99.90
56308;DHT22;42217;50.422;7.210;2022-12-18T04:07:53;-8.10;99.90
56308;DHT22;42217;50.422;7.210;2022-12-18T04:10:20;-7.80;99.90
56308;DHT22;42217;50.422;7.210;2022-12-18T04:12:45;-7.60;99.90
56308;DHT22;42217;50.422;7.210;2022-12-18T04:15:12;-7.60;99.90
56308;DHT22;42217;50.422;7.210;2022-12-18T04:17:38;-7.60;99.90
56308;DHT22;42217;50.422;7.210;2022-12-18T04:20:08;-7.70;99.90
56308;DHT22;42217;50.422;7.210;2022-12-18T04:22:34;-7.80;99.90
56308;DHT22;42217;50.422;7.210;2022-12-18T04:25:00;-7.90;99.90
56308;DHT22;42217;50.422;7.210;2022-12-18T04:27:26;-8.10;99.90
56308;DHT22;42217;50.422;7.210;2022-12-18T04:29:52;-8.30;99.90
56308;DHT22;42217;50.422;7.210;2022-12-18T04:32:17;-8.50;99.90
56308;DHT22;42217;50.422;7.210;2022-12-18T04:34:43;-8.60;99.90
56308;DHT22;42217;50.422;7.210;2022-12-18T04:37:09;-8.60;99.90
56308;DHT22;42217;50.422;7.210;2022-12-18T04:39:34;-8.50;99.90
56308;DHT22;42217;50.422;7.210;2022-12-18T04:42:01;-8.50;99.90
56308;DHT22;42217;50.422;7.210;2022-12-18T04:44:26;-8.60;99.90
56308;DHT22;42217;50.422;7.210;2022-12-18T04:46:52;-8.50;99.90
56308;DHT22;42217;50.422;7.210;2022-12-18T04:49:18;-8.60;99.90
56308;DHT22;42217;50.422;7.210;2022-12-18T04:51:43;-8.50;99.90
56308;DHT22;42217;50.422;7.210;2022-12-18T04:54:09;-8.50;99.90
56308;DHT22;42217;50.422;7.210;2022-12-18T04:56:35;-8.50;99.90
56308;DHT22;42217;50.422;7.210;2022-12-18T04:59:00;-8.40;99.90
56308;DHT22;42217;50.422;7.210;2022-12-18T05:01:26;-8.50;99.90
56308;DHT22;42217;50.422;7.210;2022-12-18T05:03:52;-8.50;99.90
56308;DHT22;42217;50.422;7.210;2022-12-18T05:06:17;-8.50;99.90
56308;DHT22;42217;50.422;7.210;2022-12-18T05:08:43;-8.30;99.90
56308;DHT22;42217;50.422;7.210;2022-12-18T05:11:11;-8.20;99.90
56308;DHT22;42217;50.422;7.210;2022-12-18T05:13:37;-8.30;99.90
56308;DHT22;42217;50.422;7.210;2022-12-18T05:16:04;-8.30;99.90
56308;DHT22;42217;50.422;7.210;2022-12-18T05:18:30;-8.30;99.90
56308;DHT22;42217;50.422;7.210;2022-12-18T05:20:57;-8.40;99.90
56308;DHT22;42217;50.422;7.210;2022-12-18T05:23:23;-8.40;99.90
56308;DHT22;42217;50.422;7.210;2022-12-18T05:26:00;-8.30;99.90
56308;DHT22;42217;50.422;7.210;2022-12-18T05:28:27;-8.40;99.90
56308;DHT22;42217;50.422;7.210;2022-12-18T05:30:56;-8.40;99.90
56308;DHT22;42217;50.422;7.210;2022-12-18T05:33:24;-8.30;99.90
56308;DHT22;42217;50.422;7.210;2022-12-18T05:35:51;-8.30;99.90
56308;DHT22;42217;50.422;7.210;2022-12-18T05:38:18;-8.20;99.90
56308;DHT22;42217;50.422;7.210;2022-12-18T05:40:44;-8.20;99.90
56308;DHT22;42217;50.422;7.210;2022-12-18T05:43:10;-8.20;99.90
56308;DHT22;42217;50.422;7.210;2022-12-18T05:45:40;-8.00;99.90
56308;DHT22;42217;50.422;7.210;2022-12-18T05:48:06;-7.70;99.90
56308;DHT22;42217;50.422;7.210;2022-12-18T05:50:39;-7.50;99.90
56308;DHT22;42217;50.422;7.210;2022-12-18T05:53:06;-7.40;99.90
56308;DHT22;42217;50.422;7.210;2022-12-18T05:55:35;-7.40;99.90
56308;DHT22;42217;50.422;7.210;2022-12-18T05:58:03;-7.50;99.90
56308;DHT22;42217;50.422;7.210;2022-12-18T06:00:29;-7.50;99.90
56308;DHT22;42217;50.422;7.210;2022-12-18T06:02:55;-7.30;99.90
56308;DHT22;42217;50.422;7.210;2022-12-18T06:05:21;-7.20;99.90
56308;DHT22;42217;50.422;7.210;2022-12-18T06:07:46;-7.20;99.90
56308;DHT22;42217;50.422;7.210;2022-12-18T06:10:12;-7.30;99.90
56308;DHT22;42217;50.422;7.210;2022-12-18T06:12:38;-7.00;99.90
56308;DHT22;42217;50.422;7.210;2022-12-18T06:15:04;-6.90;99.90
56308;DHT22;42217;50.422;7.210;2022-12-18T06:17:30;-6.90;99.90
56308;DHT22;42217;50.422;7.210;2022-12-18T06:19:57;-7.10;99.90
56308;DHT22;42217;50.422;7.210;2022-12-18T06:22:23;-7.00;99.90
56308;DHT22;42217;50.422;7.210;2022-12-18T06:24:48;-7.00;99.90
56308;DHT22;42217;50.422;7.210;2022-12-18T06:27:14;-7.00;99.90
56308;DHT22;42217;50.422;7.210;2022-12-18T06:29:40;-6.80;99.90
56308;DHT22;42217;50.422;7.210;2022-12-18T06:32:05;-6.90;99.90
56308;DHT22;42217;50.422;7.210;2022-12-18T06:34:32;-7.00;99.90
56308;DHT22;42217;50.422;7.210;2022-12-18T06:36:58;-7.00;99.90
56308;DHT22;42217;50.422;7.210;2022-12-18T06:39:24;-7.10;99.90
56308;DHT22;42217;50.422;7.210;2022-12-18T06:41:50;-7.20;99.90
56308;DHT22;42217;50.422;7.210;2022-12-18T06:44:15;-7.10;99.90
56308;DHT22;42217;50.422;7.210;2022-12-18T06:46:41;-7.00;99.90
56308;DHT22;42217;50.422;7.210;2022-12-18T06:49:07;-6.90;99.90
56308;DHT22;42217;50.422;7.210;2022-12-18T06:51:34;-6.80;99.90
56308;DHT22;42217;50.422;7.210;2022-12-18T06:54:00;-7.00;99.90
56308;DHT22;42217;50.422;7.210;2022-12-18T06:56:26;-7.10;99.90
56308;DHT22;42217;50.422;7.210;2022-12-18T06:58:52;-7.00;99.90
56308;DHT22;42217;50.422;7.210;2022-12-18T07:01:18;-7.10;99.90
56308;DHT22;42217;50.422;7.210;2022-12-18T07:03:44;-7.20;99.90
56308;DHT22;42217;50.422;7.210;2022-12-18T07:06:16;-7.20;99.90
56308;DHT22;42217;50.422;7.210;2022-12-18T07:08:42;-7.00;99.90
56308;DHT22;42217;50.422;7.210;2022-12-18T07:11:07;-7.20;99.90
56308;DHT22;42217;50.422;7.210;2022-12-18T07:13:33;-7.20;99.90
56308;DHT22;42217;50.422;7.210;2022-12-18T07:16:18;-7.10;99.90
56308;DHT22;42217;50.422;7.210;2022-12-18T07:18:45;-7.10;99.90
56308;DHT22;42217;50.422;7.210;2022-12-18T07:21:14;-6.90;99.90
56308;DHT22;42217;50.422;7.210;2022-12-18T07:23:39;-6.80;99.90
56308;DHT22;42217;50.422;7.210;2022-12-18T07:26:07;-6.80;99.90
56308;DHT22;42217;50.422;7.210;2022-12-18T07:28:35;-6.80;99.90
56308;DHT22;42217;50.422;7.210;2022-12-18T07:31:09;-6.70;99.90
56308;DHT22;42217;50.422;7.210;2022-12-18T07:33:35;-6.60;99.90
56308;DHT22;42217;50.422;7.210;2022-12-18T07:36:02;-6.70;99.90
56308;DHT22;42217;50.422;7.210;2022-12-18T07:38:29;-6.60;99.90
56308;DHT22;42217;50.422;7.210;2022-12-18T07:41:21;-6.70;99.90
56308;DHT22;42217;50.422;7.210;2022-12-18T07:43:46;-6.80;99.90
56308;DHT22;42217;50.422;7.210;2022-12-18T07:46:12;-6.80;99.90
56308;DHT22;42217;50.422;7.210;2022-12-18T07:48:42;-6.70;99.90
56308;DHT22;42217;50.422;7.210;2022-12-18T07:51:08;-6.90;99.90
56308;DHT22;42217;50.422;7.210;2022-12-18T07:53:39;-6.90;99.90
56308;DHT22;42217;50.422;7.210;2022-12-18T07:56:10;-6.90;99.90
56308;DHT22;42217;50.422;7.210;2022-12-18T07:58:37;-6.90;99.90
56308;DHT22;42217;50.422;7.210;2022-12-18T08:01:10;-7.00;99.90
56308;DHT22;42217;50.422;7.210;2022-12-18T08:03:38;-7.00;99.90
56308;DHT22;42217;50.422;7.210;2022-12-18T08:06:06;-7.00;99.90
56308;DHT22;42217;50.422;7.210;2022-12-18T08:08:33;-7.00;99.90
56308;DHT22;42217;50.422;7.210;2022-12-18T08:10:59;-7.00;99.90
56308;DHT22;42217;50.422;7.210;2022-12-18T08:13:25;-6.90;99.90
56308;DHT22;42217;50.422;7.210;2022-12-18T08:16:06;-6.80;99.90
56308;DHT22;42217;50.422;7.210;2022-12-18T08:18:32;-6.70;99.90
56308;DHT22;42217;50.422;7.210;2022-12-18T08:21:10;-6.60;99.90
56308;DHT22;42217;50.422;7.210;2022-12-18T08:23:37;-6.30;99.90
56308;DHT22;42217;50.422;7.210;2022-12-18T08:26:03;-6.20;99.90
56308;DHT22;42217;50.422;7.210;2022-12-18T08:28:29;-6.10;99.90
56308;DHT22;42217;50.422;7.210;2022-12-18T08:30:54;-6.00;99.90
56308;DHT22;42217;50.422;7.210;2022-12-18T08:33:20;-5.90;99.90
56308;DHT22;42217;50.422;7.210;2022-12-18T08:35:46;-5.90;99.90
56308;DHT22;42217;50.422;7.210;2022-12-18T08:38:11;-5.80;99.90
56308;DHT22;42217;50.422;7.210;2022-12-18T08:40:37;-5.90;99.90
56308;DHT22;42217;50.422;7.210;2022-12-18T08:43:03;-5.80;99.90
56308;DHT22;42217;50.422;7.210;2022-12-18T08:45:47;-5.80;99.90
56308;DHT22;42217;50.422;7.210;2022-12-18T08:48:12;-5.80;99.90
56308;DHT22;42217;50.422;7.210;2022-12-18T08:50:38;-5.80;99.90
56308;DHT22;42217;50.422;7.210;2022-12-18T08:53:04;-5.70;99.90
56308;DHT22;42217;50.422;7.210;2022-12-18T08:55:29;-5.60;99.90
56308;DHT22;42217;50.422;7.210;2022-12-18T08:57:55;-5.50;99.90
56308;DHT22;42217;50.422;7.210;2022-12-18T09:00:21;-5.50;99.90
56308;DHT22;42217;50.422;7.210;2022-12-18T09:02:46;-5.40;99.90
56308;DHT22;42217;50.422;7.210;2022-12-18T09:05:12;-5.30;99.90
56308;DHT22;42217;50.422;7.210;2022-12-18T09:07:38;-5.20;99.90
56308;DHT22;42217;50.422;7.210;2022-12-18T09:10:04;-5.10;99.90
56308;DHT22;42217;50.422;7.210;2022-12-18T09:12:30;-4.90;99.90
56308;DHT22;42217;50.422;7.210;2022-12-18T09:14:57;-4.80;99.90
56308;DHT22;42217;50.422;7.210;2022-12-18T09:17:22;-4.80;99.90
56308;DHT22;42217;50.422;7.210;2022-12-18T09:19:48;-4.80;99.90
56308;DHT22;42217;50.422;7.210;2022-12-18T09:22:14;-4.70;99.90
56308;DHT22;42217;50.422;7.210;2022-12-18T09:24:40;-4.80;99.90
56308;DHT22;42217;50.422;7.210;2022-12-18T09:27:06;-4.80;99.90
56308;DHT22;42217;50.422;7.210;2022-12-18T09:29:32;-4.80;99.90
56308;DHT22;42217;50.422;7.210;2022-12-18T09:31:58;-4.80;99.90
56308;DHT22;42217;50.422;7.210;2022-12-18T09:34:24;-4.80;99.90
56308;DHT22;42217;50.422;7.210;2022-12-18T09:36:50;-4.70;99.90
56308;DHT22;42217;50.422;7.210;2022-12-18T09:39:16;-4.70;99.90
56308;DHT22;42217;50.422;7.210;2022-12-18T09:41:56;-4.60;99.90
56308;DHT22;42217;50.422;7.210;2022-12-18T09:44:39;-4.60;99.90
56308;DHT22;42217;50.422;7.210;2022-12-18T09:47:18;-4.40;99.90
56308;DHT22;42217;50.422;7.210;2022-12-18T09:49:50;-4.40;99.90
56308;DHT22;42217;50.422;7.210;2022-12-18T09:54:56;-4.10;99.90
56308;DHT22;42217;50.422;7.210;2022-12-18T09:57:25;-4.10;99.90
56308;DHT22;42217;50.422;7.210;2022-12-18T10:00:23;-4.20;99.90
56308;DHT22;42217;50.422;7.210;2022-12-18T10:02:49;-4.20;99.90
56308;DHT22;42217;50.422;7.210;2022-12-18T10:05:20;-4.00;99.90
56308;DHT22;42217;50.422;7.210;2022-12-18T10:13:04;-3.90;99.90
56308;DHT22;42217;50.422;7.210;2022-12-18T10:15:54;-3.80;99.90
56308;DHT22;42217;50.422;7.210;2022-12-18T10:21:17;-3.80;99.90
56308;DHT22;42217;50.422;7.210;2022-12-18T10:26:25;-3.80;99.90
56308;DHT22;42217;50.422;7.210;2022-12-18T10:28:52;-3.70;99.90
56308;DHT22;42217;50.422;7.210;2022-12-18T10:31:21;-3.70;99.90
56308;DHT22;42217;50.422;7.210;2022-12-18T10:33:47;-3.70;99.90
56308;DHT22;42217;50.422;7.210;2022-12-18T10:36:13;-3.50;99.90
56308;DHT22;42217;50.422;7.210;2022-12-18T10:38:39;-3.60;99.90
56308;DHT22;42217;50.422;7.210;2022-12-18T10:41:22;-3.50;99.90
56308;DHT22;42217;50.422;7.210;2022-12-18T10:44:11;-3.50;99.90
56308;DHT22;42217;50.422;7.210;2022-12-18T10:46:37;-3.50;99.90
56308;DHT22;42217;50.422;7.210;2022-12-18T10:49:03;-3.40;99.90
56308;DHT22;42217;50.422;7.210;2022-12-18T10:51:34;-3.40;99.90
56308;DHT22;42217;50.422;7.210;2022-12-18T10:56:40;-3.10;99.90
56308;DHT22;42217;50.422;7.210;2022-12-18T10:59:08;-3.00;99.90
56308;DHT22;42217;50.422;7.210;2022-12-18T11:04:21;-2.90;99.90
56308;DHT22;42217;50.422;7.210;2022-12-18T11:09:28;-2.80;99.90
56308;DHT22;42217;50.422;7.210;2022-12-18T11:11:56;-2.90;99.90
56308;DHT22;42217;50.422;7.210;2022-12-18T11:14:35;-2.90;99.90
56308;DHT22;42217;50.422;7.210;2022-12-18T11:17:36;-2.80;99.90
56308;DHT22;42217;50.422;7.210;2022-12-18T11:20:18;-2.70;99.90
56308;DHT22;42217;50.422;7.210;2022-12-18T11:22:45;-2.60;99.90
56308;DHT22;42217;50.422;7.210;2022-12-18T11:25:19;-2.60;99.90
56308;DHT22;42217;50.422;7.210;2022-12-18T11:27:52;-2.70;99.90
56308;DHT22;42217;50.422;7.210;2022-12-18T11:30:37;-2.80;99.90
56308;DHT22;42217;50.422;7.210;2022-12-18T11:33:13;-2.70;99.90
56308;DHT22;42217;50.422;7.210;2022-12-18T11:35:48;-2.60;99.90
56308;DHT22;42217;50.422;7.210;2022-12-18T11:38:30;-2.30;99.90
56308;DHT22;42217;50.422;7.210;2022-12-18T11:44:02;-2.40;99.90
56308;DHT22;42217;50.422;7.210;2022-12-18T11:46:38;-2.30;99.90
56308;DHT22;42217;50.422;7.210;2022-12-18T11:49:17;-2.30;99.90
56308;DHT22;42217;50.422;7.210;2022-12-18T11:52:02;-2.20;99.90
56308;DHT22;42217;50.422;7.210;2022-12-18T11:54:30;-2.20;99.90
56308;DHT22;42217;50.422;7.210;2022-12-18T11:57:05;-2.00;99.90
56308;DHT22;42217;50.422;7.210;2022-12-18T11:59:36;-2.00;99.90
56308;DHT22;42217;50.422;7.210;2022-12-18T12:02:45;-2.10;99.90
56308;DHT22;42217;50.422;7.210;2022-12-18T12:10:53;-2.30;99.90
56308;DHT22;42217;50.422;7.210;2022-12-18T12:13:40;-2.40;99.90
56308;DHT22;42217;50.422;7.210;2022-12-18T12:22:32;-2.60;99.90
56308;DHT22;42217;50.422;7.210;2022-12-18T12:27:42;-2.50;99.90
56308;DHT22;42217;50.422;7.210;2022-12-18T12:30:11;-2.60;99.90
56308;DHT22;42217;50.422;7.210;2022-12-18T12:40:29;-2.60;99.90
56308;DHT22;42217;50.422;7.210;2022-12-18T12:45:53;-2.70;99.90
56308;DHT22;42217;50.422;7.210;2022-12-18T12:51:19;-2.80;99.90
56308;DHT22;42217;50.422;7.210;2022-12-18T12:53:46;-2.80;99.90
56308;DHT22;42217;50.422;7.210;2022-12-18T12:56:16;-2.90;99.90
56308;DHT22;42217;50.422;7.210;2022-12-18T13:01:33;-2.80;99.90
56308;DHT22;42217;50.422;7.210;2022-12-18T13:07:23;-3.00;99.90
56308;DHT22;42217;50.422;7.210;2022-12-18T13:15:45;-3.20;99.90
56308;DHT22;42217;50.422;7.210;2022-12-18T13:18:14;-3.30;99.90
56308;DHT22;42217;50.422;7.210;2022-12-18T13:20:51;-3.20;99.90
56308;DHT22;42217;50.422;7.210;2022-12-18T13:23:30;-3.20;99.90
56308;DHT22;42217;50.422;7.210;2022-12-18T13:26:00;-3.30;99.90
56308;DHT22;42217;50.422;7.210;2022-12-18T13:31:15;-3.50;99.90
56308;DHT22;42217;50.422;7.210;2022-12-18T13:34:19;-3.60;99.90
56308;DHT22;42217;50.422;7.210;2022-12-18T13:36:49;-3.70;99.90
56308;DHT22;42217;50.422;7.210;2022-12-18T13:41:48;-3.70;99.90
56308;DHT22;42217;50.422;7.210;2022-12-18T13:44:33;-3.80;99.90
56308;DHT22;42217;50.422;7.210;2022-12-18T13:47:01;-3.80;99.90
56308;DHT22;42217;50.422;7.210;2022-12-18T13:49:39;-3.80;99.90
56308;DHT22;42217;50.422;7.210;2022-12-18T13:54:57;-3.90;99.90
56308;DHT22;42217;50.422;7.210;2022-12-18T13:59:58;-3.90;99.90
56308;DHT22;42217;50.422;7.210;2022-12-18T14:02:37;-3.90;99.90
56308;DHT22;42217;50.422;7.210;2022-12-18T14:05:04;-3.90;99.90
56308;DHT22;42217;50.422;7.210;2022-12-18T14:07:30;-4.00;99.90
56308;DHT22;42217;50.422;7.210;2022-12-18T14:09:58;-3.90;99.90
56308;DHT22;42217;50.422;7.210;2022-12-18T14:12:30;-4.00;99.90
56308;DHT22;42217;50.422;7.210;2022-12-18T14:15:42;-4.00;99.90
56308;DHT22;42217;50.422;7.210;2022-12-18T14:21:00;-4.30;99.90
56308;DHT22;42217;50.422;7.210;2022-12-18T14:23:39;-4.30;99.90
56308;DHT22;42217;50.422;7.210;2022-12-18T14:26:27;-4.40;99.90
56308;DHT22;42217;50.422;7.210;2022-12-18T14:29:16;-4.50;99.90
56308;DHT22;42217;50.422;7.210;2022-12-18T14:31:43;-4.40;99.90
56308;DHT22;42217;50.422;7.210;2022-12-18T14:34:16;-4.50;99.90
56308;DHT22;42217;50.422;7.210;2022-12-18T14:36:52;-4.60;99.90
56308;DHT22;42217;50.422;7.210;2022-12-18T14:39:18;-4.70;99.90
56308;DHT22;42217;50.422;7.210;2022-12-18T14:41:44;-4.80;99.90
56308;DHT22;42217;50.422;7.210;2022-12-18T14:44:12;-4.80;99.90
56308;DHT22;42217;50.422;7.210;2022-12-18T14:46:43;-4.80;99.90
56308;DHT22;42217;50.422;7.210;2022-12-18T14:51:56;-4.90;99.90
56308;DHT22;42217;50.422;7.210;2022-12-18T14:54:23;-4.90;99.90
56308;DHT22;42217;50.422;7.210;2022-12-18T14:57:22;-5.00;99.90
56308;DHT22;42217;50.422;7.210;2022-12-18T14:59:49;-5.10;99.90
56308;DHT22;42217;50.422;7.210;2022-12-18T15:02:19;-5.00;99.90
56308;DHT22;42217;50.422;7.210;2022-12-18T15:04:46;-5.00;99.90
56308;DHT22;42217;50.422;7.210;2022-12-18T15:07:22;-5.10;99.90
56308;DHT22;42217;50.422;7.210;2022-12-18T15:12:46;-5.10;99.90
56308;DHT22;42217;50.422;7.210;2022-12-18T15:23:19;-5.20;99.90
56308;DHT22;42217;50.422;7.210;2022-12-18T15:25:48;-5.10;99.90
56308;DHT22;42217;50.422;7.210;2022-12-18T15:36:22;-5.20;99.90
56308;DHT22;42217;50.422;7.210;2022-12-18T15:38:53;-5.10;99.90
56308;DHT22;42217;50.422;7.210;2022-12-18T15:41:21;-5.00;99.90
56308;DHT22;42217;50.422;7.210;2022-12-18T15:43:48;-5.00;99.90
56308;DHT22;42217;50.422;7.210;2022-12-18T15:46:18;-5.00;99.90
56308;DHT22;42217;50.422;7.210;2022-12-18T15:48:45;-5.10;99.90
56308;DHT22;42217;50.422;7.210;2022-12-18T15:51:32;-5.10;99.90
56308;DHT22;42217;50.422;7.210;2022-12-18T15:54:01;-5.10;99.90
56308;DHT22;42217;50.422;7.210;2022-12-18T15:56:30;-5.10;99.90
56308;DHT22;42217;50.422;7.210;2022-12-18T15:59:16;-5.10;99.90
56308;DHT22;42217;50.422;7.210;2022-12-18T16:01:44;-5.00;99.90
56308;DHT22;42217;50.422;7.210;2022-12-18T16:04:15;-5.00;99.90
56308;DHT22;42217;50.422;7.210;2022-12-18T16:06:41;-5.00;99.90
56308;DHT22;42217;50.422;7.210;2022-12-18T16:09:08;-5.00;99.90
56308;DHT22;42217;50.422;7.210;2022-12-18T16:11:35;-4.90;99.90
56308;DHT22;42217;50.422;7.210;2022-12-18T16:14:22;-4.90;99.90
56308;DHT22;42217;50.422;7.210;2022-12-18T16:16:50;-4.90;99.90
56308;DHT22;42217;50.422;7.210;2022-12-18T16:19:16;-4.90;99.90
56308;DHT22;42217;50.422;7.210;2022-12-18T16:21:42;-4.90;99.90
56308;DHT22;42217;50.422;7.210;2022-12-18T16:24:16;-4.90;99.90
56308;DHT22;42217;50.422;7.210;2022-12-18T16:26:42;-4.80;99.90
56308;DHT22;42217;50.422;7.210;2022-12-18T16:29:09;-4.90;99.90
56308;DHT22;42217;50.422;7.210;2022-12-18T16:31:35;-4.90;99.90
56308;DHT22;42217;50.422;7.210;2022-12-18T16:34:18;-4.90;99.90
56308;DHT22;42217;50.422;7.210;2022-12-18T16:36:47;-4.90;99.90
56308;DHT22;42217;50.422;7.210;2022-12-18T16:39:12;-4.80;99.90
56308;DHT22;42217;50.422;7.210;2022-12-18T16:41:38;-4.80;99.90
56308;DHT22;42217;50.422;7.210;2022-12-18T16:44:04;-4.80;99.90
56308;DHT22;42217;50.422;7.210;2022-12-18T16:46:30;-4.80;99.90
56308;DHT22;42217;50.422;7.210;2022-12-18T16:48:57;-4.80;99.90
56308;DHT22;42217;50.422;7.210;2022-12-18T16:51:24;-4.70;99.90
56308;DHT22;42217;50.422;7.210;2022-12-18T16:53:50;-4.70;99.90
56308;DHT22;42217;50.422;7.210;2022-12-18T16:56:15;-4.70;99.90
56308;DHT22;42217;50.422;7.210;2022-12-18T16:58:42;-4.60;99.90
56308;DHT22;42217;50.422;7.210;2022-12-18T17:01:11;-4.60;99.90
56308;DHT22;42217;50.422;7.210;2022-12-18T17:03:37;-4.60;99.90
56308;DHT22;42217;50.422;7.210;2022-12-18T17:06:04;-4.60;99.90
56308;DHT22;42217;50.422;7.210;2022-12-18T17:08:31;-4.70;99.90
56308;DHT22;42217;50.422;7.210;2022-12-18T17:11:03;-4.70;99.90
56308;DHT22;42217;50.422;7.210;2022-12-18T17:13:29;-4.70;99.90
56308;DHT22;42217;50.422;7.210;2022-12-18T17:15:54;-4.70;99.90
56308;DHT22;42217;50.422;7.210;2022-12-18T17:18:22;-4.70;99.90
56308;DHT22;42217;50.422;7.210;2022-12-18T17:20:47;-4.60;99.90
56308;DHT22;42217;50.422;7.210;2022-12-18T17:23:13;-4.70;99.90
56308;DHT22;42217;50.422;7.210;2022-12-18T17:25:40;-4.70;99.90
56308;DHT22;42217;50.422;7.210;2022-12-18T17:28:05;-4.60;99.90
56308;DHT22;42217;50.422;7.210;2022-12-18T17:30:31;-4.70;99.90
56308;DHT22;42217;50.422;7.210;2022-12-18T17:32:57;-4.70;99.90
56308;DHT22;42217;50.422;7.210;2022-12-18T17:35:22;-4.70;99.90
56308;DHT22;42217;50.422;7.210;2022-12-18T17:37:48;-4.70;99.90
56308;DHT22;42217;50.422;7.210;2022-12-18T17:40:14;-4.70;99.90
56308;DHT22;42217;50.422;7.210;2022-12-18T17:42:39;-4.70;99.90
56308;DHT22;42217;50.422;7.210;2022-12-18T17:45:05;-4.60;99.90
56308;DHT22;42217;50.422;7.210;2022-12-18T17:47:34;-4.60;99.90
56308;DHT22;42217;50.422;7.210;2022-12-18T17:50:00;-4.60;99.90
56308;DHT22;42217;50.422;7.210;2022-12-18T17:52:26;-4.60;99.90
56308;DHT22;42217;50.422;7.210;2022-12-18T17:54:51;-4.50;99.90
56308;DHT22;42217;50.422;7.210;2022-12-18T17:57:17;-4.60;99.90
56308;DHT22;42217;50.422;7.210;2022-12-18T17:59:43;-4.60;99.90